Chester, Vermont
Current Conditions -  °F | °C
As of 4:54 AM on Wednesday 22 Oct 2014 (Local Time) from KVSF Reporting Station
Light Rain Light Rain  
Wind Chill: 48°   Ceiling: 1700
Heat Index: 48°   Visibility: 3mi
Dew Point: 45°   Wind: 3mph
Humidity: 89%   Direction: NA
Pressure: 30.07"   Gusts: NA
Location:  43.26°N, 72.6°W
Report Text: KVSF 220854Z AUTO VRB03KT 3SM -RA BR OVC017 09/07 A3007 RMK AO2 RAB25 SLP186 P0000 60000 T00890072 51008
Loading
Personal Weather Stations






























Interactive Weather Map
Tropical Storm Tracking
New forecast layout! Learn more

10-Day Weather Forecast

Advertisements
Track Severe Weather on mobile